createdAt,value
2023-04-21T00:02:35.787Z,46.99
2023-04-21T00:05:10.761Z,46.78
2023-04-21T00:07:43.641Z,46.98
2023-04-21T00:10:15.985Z,47.08
2023-04-21T00:12:48.391Z,47.18
2023-04-21T00:15:20.727Z,47.15
2023-04-21T00:17:53.154Z,47.28
2023-04-21T00:20:28.835Z,47.20
2023-04-21T00:23:01.653Z,47.25
2023-04-21T00:25:34.110Z,47.46
2023-04-21T00:28:06.391Z,47.36
2023-04-21T00:30:42.524Z,47.46
2023-04-21T00:33:14.869Z,47.56
2023-04-21T00:35:47.341Z,47.52
2023-04-21T00:38:19.715Z,47.62
2023-04-21T00:40:51.946Z,47.79
2023-04-21T00:43:25.826Z,47.76
2023-04-21T00:46:00.033Z,47.77
2023-04-21T00:48:32.384Z,47.95
2023-04-21T00:51:05.155Z,47.79
2023-04-21T00:53:37.535Z,48.00
2023-04-21T00:56:10.963Z,48.09
2023-04-21T00:58:46.643Z,48.06
2023-04-21T01:01:19.579Z,48.21
2023-04-21T01:03:52.102Z,48.34
2023-04-21T01:06:24.674Z,48.27
2023-04-21T01:08:58.089Z,48.28
2023-04-21T01:11:30.948Z,48.43
2023-04-21T01:14:03.334Z,48.39
2023-04-21T01:16:35.761Z,48.43
2023-04-21T01:19:08.191Z,48.53
2023-04-21T01:21:43.281Z,48.61
2023-04-21T01:24:15.860Z,48.51
2023-04-21T01:26:49.668Z,48.70
2023-04-21T01:29:22.005Z,48.61
2023-04-21T01:31:54.524Z,48.68
2023-04-21T01:34:26.785Z,48.64
2023-04-21T01:36:59.093Z,48.86
2023-04-21T01:39:31.814Z,48.81
2023-04-21T01:42:04.161Z,48.80
2023-04-21T01:44:36.969Z,48.86
2023-04-21T01:47:09.808Z,48.84
2023-04-21T01:49:42.144Z,48.85
2023-04-21T01:52:14.519Z,48.86
2023-04-21T01:54:46.878Z,48.77
2023-04-21T01:57:20.000Z,48.91
2023-04-21T01:59:52.415Z,49.01
2023-04-21T02:02:24.906Z,49.10
2023-04-21T02:04:57.679Z,49.15
2023-04-21T02:07:30.038Z,49.16
2023-04-21T02:10:02.430Z,49.17
2023-04-21T02:12:34.880Z,49.17
2023-04-21T02:15:09.155Z,49.30
2023-04-21T02:17:43.017Z,49.25
2023-04-21T02:20:15.767Z,49.38
2023-04-21T02:22:48.193Z,49.32
2023-04-21T02:25:21.055Z,49.48
2023-04-21T02:27:53.252Z,49.42
2023-04-21T02:30:25.625Z,49.42
2023-04-21T02:32:58.000Z,49.41
2023-04-21T02:35:30.468Z,49.67
2023-04-21T02:38:07.332Z,49.70
2023-04-21T02:40:39.913Z,49.44
2023-04-21T02:43:12.859Z,49.69
2023-04-21T02:45:45.252Z,49.62
2023-04-21T02:48:20.938Z,49.89
2023-04-21T02:50:54.247Z,49.74
2023-04-21T02:53:26.867Z,49.70
2023-04-21T02:55:59.288Z,49.79
2023-04-21T02:58:31.576Z,49.68
2023-04-21T03:01:04.300Z,49.77
2023-04-21T03:03:37.158Z,49.83
2023-04-21T03:06:09.941Z,49.91
2023-04-21T03:08:42.444Z,49.94
2023-04-21T03:11:14.860Z,49.92
2023-04-21T03:13:47.278Z,50.05
2023-04-21T03:16:19.913Z,50.06
2023-04-21T03:18:52.162Z,49.95
2023-04-21T03:21:24.517Z,50.04
2023-04-21T03:23:57.124Z,49.98
2023-04-21T03:26:29.474Z,50.06
2023-04-21T03:29:03.467Z,50.06
2023-04-21T03:31:35.968Z,50.36
2023-04-21T03:34:08.469Z,50.19
2023-04-21T03:36:41.116Z,50.17
2023-04-21T03:41:51.635Z,50.28
2023-04-21T03:44:26.300Z,50.29
2023-04-21T03:46:59.200Z,50.49
2023-04-21T03:49:31.873Z,50.39
2023-04-21T03:52:04.216Z,50.36
2023-04-21T03:54:36.549Z,50.56
2023-04-21T03:57:08.936Z,50.69
2023-04-21T03:59:41.256Z,50.60
2023-04-21T04:02:13.632Z,50.78
2023-04-21T04:04:46.268Z,50.59
2023-04-21T04:07:18.800Z,50.51
2023-04-21T04:09:51.127Z,50.57
2023-04-21T04:12:23.386Z,50.68
2023-04-21T04:14:55.679Z,50.59
2023-04-21T04:17:27.972Z,50.60
2023-04-21T04:20:00.392Z,50.81
2023-04-21T04:22:33.883Z,50.80
2023-04-21T04:25:07.281Z,50.82
2023-04-21T04:27:39.663Z,50.78
2023-04-21T04:30:14.871Z,50.71
2023-04-21T04:32:47.210Z,50.72
2023-04-21T04:35:19.814Z,50.86
2023-04-21T04:37:52.352Z,50.78
2023-04-21T04:40:24.830Z,50.77
2023-04-21T04:42:57.181Z,50.93
2023-04-21T04:45:33.290Z,50.74
2023-04-21T04:48:05.944Z,50.78
2023-04-21T04:50:38.187Z,50.77
2023-04-21T04:53:10.437Z,50.78
2023-04-21T04:55:42.903Z,50.76
2023-04-21T04:58:15.665Z,50.60
2023-04-21T05:00:48.196Z,50.85
2023-04-21T05:03:20.805Z,50.63
2023-04-21T05:05:54.374Z,50.82
2023-04-21T05:08:26.748Z,50.86
2023-04-21T05:10:59.141Z,50.69
2023-04-21T05:13:31.502Z,50.72
2023-04-21T05:16:04.132Z,50.70
2023-04-21T05:18:36.359Z,50.86
2023-04-21T05:21:08.864Z,50.84
2023-04-21T05:23:41.148Z,50.71
2023-04-21T05:26:13.499Z,50.64
2023-04-21T05:28:45.757Z,50.81
2023-04-21T05:31:18.177Z,50.67
2023-04-21T05:33:50.472Z,50.76
2023-04-21T05:36:25.001Z,50.70
2023-04-21T05:38:57.454Z,50.63
2023-04-21T05:41:29.781Z,50.57
2023-04-21T05:44:01.993Z,50.62
2023-04-21T05:46:35.216Z,50.46
2023-04-21T05:49:07.612Z,50.52
2023-04-21T05:51:39.864Z,50.46
2023-04-21T05:54:12.128Z,50.23
2023-04-21T05:56:44.575Z,50.28
2023-04-21T05:59:17.075Z,50.15
2023-04-21T06:01:49.388Z,50.00
2023-04-21T06:04:22.227Z,49.89
2023-04-21T06:06:55.016Z,49.88
2023-04-21T06:09:27.343Z,49.87
2023-04-21T06:11:59.775Z,49.74
2023-04-21T06:14:32.147Z,49.69
2023-04-21T06:17:04.601Z,49.54
2023-04-21T06:19:41.866Z,49.39
2023-04-21T06:22:14.305Z,49.35
2023-04-21T06:24:46.628Z,49.28
2023-04-21T06:27:19.227Z,49.07
2023-04-21T06:29:55.396Z,49.07
2023-04-21T06:32:28.013Z,48.94
2023-04-21T06:35:00.319Z,48.78
2023-04-21T06:37:32.676Z,48.73
2023-04-21T06:40:05.805Z,48.68
2023-04-21T06:42:38.187Z,48.49
2023-04-21T06:45:12.243Z,48.45
2023-04-21T06:47:44.556Z,48.35
2023-04-21T06:50:17.047Z,48.30
2023-04-21T06:52:49.468Z,48.15
2023-04-21T06:55:21.941Z,48.16
2023-04-21T06:57:54.184Z,47.88
2023-04-21T07:00:26.682Z,47.92
2023-04-21T07:02:59.009Z,47.76
2023-04-21T07:05:31.641Z,47.59
2023-04-21T07:08:03.983Z,47.46
2023-04-21T07:10:36.393Z,47.11
2023-04-21T07:13:10.192Z,47.07
2023-04-21T07:15:42.586Z,47.01
2023-04-21T07:18:14.866Z,46.90
2023-04-21T07:20:47.459Z,46.81
2023-04-21T07:23:20.202Z,46.64
2023-04-21T07:25:52.596Z,46.54
2023-04-21T07:28:24.982Z,46.25
2023-04-21T07:30:57.374Z,45.99
2023-04-21T07:33:30.034Z,45.97
2023-04-21T07:36:02.434Z,45.90
2023-04-21T07:38:35.185Z,45.85
2023-04-21T07:41:07.540Z,45.57
2023-04-21T07:43:40.187Z,44.94
2023-04-21T07:46:13.399Z,45.01
2023-04-21T07:48:46.471Z,45.12
2023-04-21T07:51:18.982Z,44.97
2023-04-21T07:53:51.755Z,44.83
2023-04-21T07:56:24.081Z,44.55
2023-04-21T07:58:56.365Z,44.10
2023-04-21T08:01:28.748Z,44.22
2023-04-21T08:04:01.235Z,44.07
2023-04-21T08:06:34.541Z,43.62
2023-04-21T08:09:06.998Z,43.37
2023-04-21T08:11:39.394Z,42.95
2023-04-21T08:14:12.019Z,43.11
2023-04-21T08:16:44.458Z,43.05
2023-04-21T08:19:16.971Z,42.90
2023-04-21T08:21:49.333Z,42.62
2023-04-21T08:24:21.880Z,41.89
2023-04-21T08:26:54.759Z,41.89
2023-04-21T08:29:27.127Z,41.83
2023-04-21T08:31:59.699Z,41.09
2023-04-21T08:34:32.251Z,41.25
2023-04-21T08:37:04.605Z,41.43
2023-04-21T08:39:37.008Z,41.48
2023-04-21T08:42:11.189Z,41.20
2023-04-21T08:44:44.165Z,41.16
2023-04-21T08:47:17.290Z,40.98
2023-04-21T08:49:51.448Z,40.76
2023-04-21T08:52:23.793Z,40.81
2023-04-21T08:54:56.426Z,40.35
2023-04-21T08:57:28.725Z,40.12
2023-04-21T09:00:00.978Z,39.86
2023-04-21T09:02:33.396Z,39.94
2023-04-21T09:05:06.649Z,39.21
2023-04-21T09:07:41.557Z,39.39
2023-04-21T09:10:12.325Z,39.37
2023-04-21T09:12:51.406Z,39.83
2023-04-21T09:15:24.998Z,39.59
2023-04-21T09:17:58.915Z,39.35
2023-04-21T09:20:31.518Z,39.19
2023-04-21T09:23:07.549Z,38.99
2023-04-21T09:25:41.617Z,38.78
2023-04-21T09:28:15.279Z,38.67
2023-04-21T09:30:48.470Z,37.88
2023-04-21T09:33:30.709Z,38.67
2023-04-21T09:36:06.451Z,38.59
2023-04-21T09:38:38.743Z,38.29
2023-04-21T09:41:11.091Z,38.22
2023-04-21T09:43:43.361Z,38.15
2023-04-21T09:46:17.413Z,38.15
2023-04-21T09:48:50.201Z,37.86
2023-04-21T09:51:37.344Z,37.80
2023-04-21T09:54:29.197Z,37.74
2023-04-21T09:57:05.072Z,37.38
2023-04-21T09:59:38.902Z,37.38
2023-04-21T10:02:13.578Z,36.98
2023-04-21T10:04:46.981Z,37.21
2023-04-21T10:07:19.443Z,37.18
2023-04-21T10:09:54.819Z,37.07
2023-04-21T10:12:28.541Z,36.55
2023-04-21T10:15:04.758Z,36.71
2023-04-21T10:17:38.420Z,36.59
2023-04-21T10:20:16.654Z,36.54
2023-04-21T10:22:59.794Z,36.44
2023-04-21T10:25:33.526Z,36.43
2023-04-21T10:28:09.504Z,36.09
2023-04-21T10:30:42.018Z,36.25
2023-04-21T10:33:18.741Z,36.09
2023-04-21T10:36:05.540Z,35.94
2023-04-21T10:38:45.169Z,35.96
2023-04-21T10:41:31.651Z,35.63
2023-04-21T10:44:13.298Z,35.85
2023-04-21T10:46:49.979Z,35.46
2023-04-21T10:49:26.944Z,35.55
2023-04-21T10:52:12.335Z,35.36
2023-04-21T10:55:05.523Z,35.58
2023-04-21T10:57:38.105Z,35.33
2023-04-21T11:00:15.760Z,35.18
2023-04-21T11:02:56.655Z,35.45
2023-04-21T11:05:36.434Z,35.33
2023-04-21T11:08:14.727Z,35.19
2023-04-21T11:10:53.989Z,35.13
2023-04-21T11:13:27.668Z,34.83
2023-04-21T11:16:04.980Z,34.76
2023-04-21T11:18:40.572Z,34.64
2023-04-21T11:21:22.127Z,34.22
2023-04-21T11:23:59.140Z,34.13
2023-04-21T11:26:37.875Z,34.53
2023-04-21T11:29:11.788Z,33.90
2023-04-21T11:31:46.718Z,34.19
2023-04-21T11:34:21.674Z,34.32
2023-04-21T11:36:54.548Z,34.23
2023-04-21T11:39:26.842Z,34.20
2023-04-21T11:41:59.296Z,34.11
2023-04-21T11:44:37.001Z,33.82
2023-04-21T11:47:20.070Z,33.81
2023-04-21T11:49:56.575Z,33.94
2023-04-21T11:52:30.970Z,33.81
2023-04-21T11:55:06.376Z,33.56
2023-04-21T11:57:40.894Z,33.42
2023-04-21T12:00:13.513Z,33.32
2023-04-21T12:02:46.262Z,33.77
2023-04-21T12:05:18.721Z,33.42
2023-04-21T12:07:52.367Z,33.25
2023-04-21T12:10:24.611Z,32.96
2023-04-21T12:12:58.818Z,33.18
2023-04-21T12:15:32.633Z,33.09
2023-04-21T12:18:05.186Z,33.11
2023-04-21T12:20:37.921Z,32.83
2023-04-21T12:23:10.353Z,32.91
2023-04-21T12:25:42.746Z,32.72
2023-04-21T12:28:16.937Z,32.72
2023-04-21T12:30:49.209Z,32.54
2023-04-21T12:33:21.784Z,32.41
2023-04-21T12:35:54.234Z,32.48
2023-04-21T12:38:26.636Z,32.16
2023-04-21T12:40:58.940Z,31.69
2023-04-21T12:43:32.678Z,32.03
2023-04-21T12:46:05.176Z,31.97
2023-04-21T12:48:37.704Z,31.88
2023-04-21T12:51:10.182Z,31.74
2023-04-21T12:53:42.543Z,31.67
2023-04-21T12:56:14.990Z,31.63
2023-04-21T12:58:48.429Z,31.67
2023-04-21T13:01:22.526Z,31.68
2023-04-21T13:03:55.149Z,31.65
2023-04-21T13:06:28.158Z,31.45
2023-04-21T13:09:00.607Z,31.55
2023-04-21T13:11:33.082Z,31.32
2023-04-21T13:14:05.457Z,31.47
2023-04-21T13:16:37.964Z,30.37
2023-04-21T13:19:10.418Z,31.30
2023-04-21T13:21:42.718Z,31.19
2023-04-21T13:24:15.145Z,31.20
2023-04-21T13:26:47.459Z,31.04
2023-04-21T13:29:19.795Z,31.10
2023-04-21T13:31:52.140Z,31.07
2023-04-21T13:34:24.973Z,30.87
2023-04-21T13:36:57.941Z,30.71
2023-04-21T13:39:30.575Z,30.46
2023-04-21T13:42:03.268Z,30.89
2023-04-21T13:44:35.929Z,30.87
2023-04-21T13:47:09.376Z,30.77
2023-04-21T13:49:41.725Z,30.69
2023-04-21T13:52:14.111Z,30.78
2023-04-21T13:54:46.519Z,30.71
2023-04-21T13:57:18.892Z,30.78
2023-04-21T13:59:51.759Z,30.63
2023-04-21T14:02:25.870Z,30.63
2023-04-21T14:04:58.569Z,30.72
2023-04-21T14:07:31.515Z,30.77
2023-04-21T14:10:04.456Z,30.83
2023-04-21T14:12:36.876Z,30.63
2023-04-21T14:15:12.728Z,30.66
2023-04-21T14:17:45.164Z,30.60
2023-04-21T14:20:17.608Z,30.65
2023-04-21T14:22:49.845Z,30.36
2023-04-21T14:25:22.287Z,30.46
2023-04-21T14:27:55.032Z,30.45
2023-04-21T14:30:27.244Z,30.42
2023-04-21T14:32:59.634Z,30.13
2023-04-21T14:35:32.040Z,30.51
2023-04-21T14:38:04.430Z,30.49
2023-04-21T14:40:36.736Z,30.27
2023-04-21T14:43:11.519Z,30.45
2023-04-21T14:45:44.032Z,30.54
2023-04-21T14:48:16.539Z,30.31
2023-04-21T14:50:49.354Z,30.32
2023-04-21T14:53:21.639Z,30.50
2023-04-21T14:55:54.773Z,30.30
2023-04-21T14:58:27.305Z,30.10
2023-04-21T15:00:59.703Z,30.25
2023-04-21T15:03:33.338Z,30.35
2023-04-21T15:06:06.584Z,30.39
2023-04-21T15:08:40.011Z,30.32
2023-04-21T15:11:12.463Z,30.24
2023-04-21T15:13:44.727Z,30.33
2023-04-21T15:16:17.088Z,30.39
2023-04-21T15:18:49.439Z,30.27
2023-04-21T15:21:23.039Z,30.25
2023-04-21T15:23:55.315Z,30.28
2023-04-21T15:26:30.420Z,30.31
2023-04-21T15:29:02.731Z,30.31
2023-04-21T15:31:35.412Z,30.27
2023-04-21T15:34:07.979Z,30.42
2023-04-21T15:36:40.388Z,30.32
2023-04-21T15:39:14.181Z,30.37
2023-04-21T15:41:46.852Z,30.36
2023-04-21T15:44:19.194Z,30.40
2023-04-21T15:46:51.802Z,30.48
2023-04-21T15:49:26.022Z,30.56
2023-04-21T15:51:57.200Z,30.61
2023-04-21T15:54:29.652Z,30.70
2023-04-21T15:57:02.152Z,30.67
2023-04-21T15:59:34.522Z,30.66
2023-04-21T16:02:07.232Z,30.67
2023-04-21T16:04:40.233Z,30.60
2023-04-21T16:07:12.852Z,30.64
2023-04-21T16:09:45.288Z,30.66
2023-04-21T16:12:18.462Z,30.86
2023-04-21T16:14:57.606Z,30.78
2023-04-21T16:17:34.031Z,30.78
2023-04-21T16:20:07.190Z,30.84
2023-04-21T16:22:39.894Z,30.89
2023-04-21T16:25:14.456Z,30.83
2023-04-21T16:27:45.718Z,31.05
2023-04-21T16:30:18.367Z,31.10
2023-04-21T16:32:50.831Z,31.13
2023-04-21T16:35:23.221Z,31.18
2023-04-21T16:37:56.240Z,31.28
2023-04-21T16:40:28.827Z,31.24
2023-04-21T16:43:01.175Z,31.26
2023-04-21T16:45:33.655Z,31.44
2023-04-21T16:48:06.233Z,31.51
2023-04-21T16:50:38.759Z,31.60
2023-04-21T16:53:11.111Z,31.62
2023-04-21T16:55:43.394Z,31.69
2023-04-21T16:58:15.771Z,31.71
2023-04-21T17:00:48.307Z,31.85
2023-04-21T17:03:20.881Z,31.96
2023-04-21T17:05:53.340Z,32.01
2023-04-21T17:08:25.791Z,31.99
2023-04-21T17:10:59.072Z,32.17
2023-04-21T17:13:31.528Z,32.24
2023-04-21T17:16:03.950Z,32.26
2023-04-21T17:18:36.745Z,32.34
2023-04-21T17:21:09.169Z,32.57
2023-04-21T17:23:41.342Z,32.59
2023-04-21T17:26:13.724Z,32.69
2023-04-21T17:28:46.089Z,32.71
2023-04-21T17:31:18.998Z,32.69
2023-04-21T17:33:52.769Z,32.99
2023-04-21T17:36:25.754Z,33.02
2023-04-21T17:38:58.822Z,33.06
2023-04-21T17:41:31.074Z,33.32
2023-04-21T17:44:03.333Z,33.40
2023-04-21T17:46:36.009Z,33.56
2023-04-21T17:49:09.064Z,33.64
2023-04-21T17:51:41.650Z,33.72
2023-04-21T17:54:14.048Z,33.90
2023-04-21T17:56:46.689Z,33.79
2023-04-21T17:59:19.076Z,33.95
2023-04-21T18:01:51.589Z,33.95
2023-04-21T18:04:25.350Z,34.10
2023-04-21T18:06:59.106Z,34.22
2023-04-21T18:09:31.696Z,34.40
2023-04-21T18:12:04.139Z,34.43
2023-04-21T18:14:37.222Z,34.59
2023-04-21T18:17:10.077Z,34.72
2023-04-21T18:19:42.611Z,34.78
2023-04-21T18:22:14.917Z,34.80
2023-04-21T18:24:47.319Z,35.07
2023-04-21T18:27:19.744Z,35.17
2023-04-21T18:29:52.133Z,35.27
2023-04-21T18:32:24.589Z,35.44
2023-04-21T18:34:57.072Z,35.43
2023-04-21T18:37:29.578Z,35.66
2023-04-21T18:40:02.099Z,35.78
2023-04-21T18:42:34.695Z,35.90
2023-04-21T18:45:08.555Z,35.98
2023-04-21T18:47:40.832Z,36.10
2023-04-21T18:50:13.563Z,36.12
2023-04-21T18:52:45.925Z,36.25
2023-04-21T18:55:18.518Z,36.36
2023-04-21T18:57:50.901Z,36.41
2023-04-21T19:00:23.800Z,36.55
2023-04-21T19:02:56.484Z,36.74
2023-04-21T19:05:31.110Z,36.70
2023-04-21T19:08:04.142Z,36.66
2023-04-21T19:10:37.986Z,36.92
2023-04-21T19:13:11.636Z,36.94
2023-04-21T19:15:44.032Z,37.05
2023-04-21T19:18:16.440Z,37.00
2023-04-21T19:20:48.677Z,37.24
2023-04-21T19:23:20.983Z,37.23
2023-04-21T19:25:55.195Z,37.29
2023-04-21T19:28:27.856Z,38.40
2023-04-21T19:31:00.289Z,37.89
2023-04-21T19:33:32.939Z,37.66
2023-04-21T19:36:06.575Z,37.62
2023-04-21T19:38:39.012Z,37.83
2023-04-21T19:41:11.384Z,37.74
2023-04-21T19:43:43.714Z,37.86
2023-04-21T19:46:16.428Z,37.96
2023-04-21T19:48:49.855Z,38.12
2023-04-21T19:51:23.877Z,38.27
2023-04-21T19:54:10.029Z,38.22
2023-04-21T19:56:44.804Z,38.23
2023-04-21T19:59:17.433Z,38.33
2023-04-21T20:01:49.967Z,38.34
2023-04-21T20:04:22.623Z,38.52
2023-04-21T20:06:55.197Z,38.61
2023-04-21T20:09:27.873Z,38.70
2023-04-21T20:12:00.281Z,38.70
2023-04-21T20:14:32.552Z,38.89
2023-04-21T20:17:05.052Z,38.86
2023-04-21T20:19:40.551Z,38.99
2023-04-21T20:22:12.894Z,39.00
2023-04-21T20:24:45.966Z,39.14
2023-04-21T20:27:19.126Z,39.10
2023-04-21T20:29:51.521Z,39.34
2023-04-21T20:32:23.898Z,39.42
2023-04-21T20:34:56.418Z,39.43
2023-04-21T20:37:29.759Z,39.50
2023-04-21T20:40:04.550Z,39.58
2023-04-21T20:42:37.535Z,39.64
2023-04-21T20:45:11.225Z,39.67
2023-04-21T20:47:43.570Z,39.77
2023-04-21T20:50:16.105Z,39.88
2023-04-21T20:52:50.257Z,39.93
2023-04-21T20:55:22.622Z,40.04
2023-04-21T20:57:55.041Z,40.15
2023-04-21T21:00:27.412Z,40.17
2023-04-21T21:03:00.224Z,40.24
2023-04-21T21:05:34.208Z,40.25
2023-04-21T21:08:06.833Z,40.40
2023-04-21T21:10:39.366Z,40.40
2023-04-21T21:13:11.677Z,40.51
2023-04-21T21:15:44.015Z,40.50
2023-04-21T21:18:16.373Z,40.67
2023-04-21T21:20:48.663Z,40.75
2023-04-21T21:23:21.212Z,40.80
2023-04-21T21:25:53.562Z,40.84
2023-04-21T21:28:26.127Z,40.83
2023-04-21T21:30:58.478Z,40.88
2023-04-21T21:33:30.838Z,40.87
2023-04-21T21:36:03.243Z,40.96
2023-04-21T21:38:35.620Z,41.08
2023-04-21T21:41:10.394Z,41.17
2023-04-21T21:43:42.899Z,41.17
2023-04-21T21:46:15.409Z,41.31
2023-04-21T21:48:47.823Z,41.31
2023-04-21T21:51:20.385Z,41.36
2023-04-21T21:53:52.878Z,41.49
2023-04-21T21:56:26.026Z,41.52
2023-04-21T21:58:58.594Z,41.52
2023-04-21T22:01:31.313Z,41.56
2023-04-21T22:04:03.776Z,41.69
2023-04-21T22:06:36.312Z,41.76
2023-04-21T22:09:09.105Z,41.89
2023-04-21T22:11:41.610Z,41.90
2023-04-21T22:14:22.616Z,41.97
2023-04-21T22:16:57.437Z,42.12
2023-04-21T22:19:31.424Z,42.16
2023-04-21T22:22:03.935Z,42.20
2023-04-21T22:24:36.293Z,42.22
2023-04-21T22:27:08.608Z,42.27
2023-04-21T22:29:41.166Z,42.42
2023-04-21T22:32:13.787Z,42.45
2023-04-21T22:34:46.224Z,42.57
2023-04-21T22:37:18.527Z,42.70
2023-04-21T22:39:50.790Z,42.69
2023-04-21T22:42:23.143Z,42.80
2023-04-21T22:44:55.437Z,42.94
2023-04-21T22:47:27.789Z,42.83
2023-04-21T22:50:00.324Z,42.89
2023-04-21T22:52:33.160Z,43.11
2023-04-21T22:55:06.456Z,43.02
2023-04-21T22:57:39.176Z,43.11
2023-04-21T23:00:12.640Z,43.24
2023-04-21T23:02:45.077Z,43.34
2023-04-21T23:05:17.481Z,43.29
2023-04-21T23:07:49.726Z,43.37
2023-04-21T23:10:22.380Z,43.46
2023-04-21T23:12:54.789Z,43.50
2023-04-21T23:15:27.785Z,43.57
2023-04-21T23:18:00.140Z,43.67
2023-04-21T23:20:32.577Z,43.62
2023-04-21T23:23:04.935Z,43.75
2023-04-21T23:25:37.367Z,43.67
2023-04-21T23:28:09.753Z,43.77
2023-04-21T23:30:42.085Z,43.78
2023-04-21T23:33:14.529Z,43.91
2023-04-21T23:35:47.230Z,43.94
2023-04-21T23:38:19.495Z,43.97
2023-04-21T23:40:51.856Z,44.05
2023-04-21T23:43:24.246Z,44.07
2023-04-21T23:45:57.064Z,44.10
2023-04-21T23:48:29.268Z,44.09
2023-04-21T23:51:01.950Z,44.15
2023-04-21T23:53:34.276Z,44.09
2023-04-21T23:56:06.822Z,44.34
2023-04-21T23:58:39.062Z,44.36
